Terminal Aerodrome Forecast
Issued by NWS Nashville, TN

Home | Current Version | Previous Version | Text Only | Print | Product List | Glossary On
Versions: 1 2 3 4 5 6 7 8 9 10 11 12 13 14 15
000
FTUS44 KOHX 222358 AAA
TAFBNA
TAF AMD
KBNA 222358Z 2300/2324 11011G19KT 6SM -SHRA OVC025
     FM230100 11015G28KT 3SM -SHRA SCT007 OVC015
      TEMPO 2303/2307 1SM SHRA BKN007 OVC015
     FM230700 13015G23KT 6SM -SHRA SCT007 OVC025
     FM231200 13011G18KT P6SM VCSH OVC015=

USA.gov is the U.S. government's official web portal to all federal, state and local government web resources and services.